Cambria, Virginia
Current Conditions -  °F | °C
As of 11:15 AM on Monday 22 Dec 2014 (Local Time) from KBCB Reporting Station
Overcast Overcast  
Wind Chill: 29°   Ceiling: 500
Heat Index: 33°   Visibility: 7mi
Dew Point: 31°   Wind: 5mph
Humidity: 93%   Direction: 80°E
Pressure: 30.16"   Gusts: NA
Location:  37.1278°N, 80.4251°W
Report Text: KBCB 221615Z AUTO 08004KT 7SM OVC005 01/00 A3016 RMK AO2 T00051005
Loading
Personal Weather Stations






























Interactive Weather Map New forecast layout! Learn more

10-Day Weather Forecast

Advertisements
Track Severe Weather on mobile